sensor_id;sensor_type;location;lat;lon;timestamp;noise_LAeq;noise_LA_min;noise_LA_max;noise_LA01;noise_LA95
79288;Laerm;68737;53.946;27.634;2023-05-07T00:01:51;43.957581;40.130852;54.206207;;
79288;Laerm;68737;53.946;27.634;2023-05-07T00:04:21;42.968452;39.918907;47.177055;;
79288;Laerm;68737;53.946;27.634;2023-05-07T00:06:51;42.550186;39.901527;48.260971;;
79288;Laerm;68737;53.946;27.634;2023-05-07T00:09:21;45.648911;40.375587;57.178062;;
79288;Laerm;68737;53.946;27.634;2023-05-07T00:11:51;42.635254;39.364998;53.998672;;
79288;Laerm;68737;53.946;27.634;2023-05-07T00:14:21;44.214706;39.871552;48.652565;;
79288;Laerm;68737;53.946;27.634;2023-05-07T00:16:51;43.388748;39.674362;50.834496;;
79288;Laerm;68737;53.946;27.634;2023-05-07T00:19:21;44.146461;39.902626;54.341553;;
79288;Laerm;68737;53.946;27.634;2023-05-07T00:21:51;45.149994;41.491409;53.282562;;
79288;Laerm;68737;53.946;27.634;2023-05-07T00:24:21;46.000221;40.919746;55.412270;;
79288;Laerm;68737;53.946;27.634;2023-05-07T00:26:51;44.242294;40.308746;52.973434;;
79288;Laerm;68737;53.946;27.634;2023-05-07T00:29:21;44.842392;39.706863;54.484993;;
79288;Laerm;68737;53.946;27.634;2023-05-07T00:31:51;43.279114;39.619553;49.106995;;
79288;Laerm;68737;53.946;27.634;2023-05-07T00:34:21;44.897316;39.821129;56.018341;;
79288;Laerm;68737;53.946;27.634;2023-05-07T00:36:51;44.358818;39.705353;55.256081;;
79288;Laerm;68737;53.946;27.634;2023-05-07T00:39:21;43.276169;39.841545;52.154152;;
79288;Laerm;68737;53.946;27.634;2023-05-07T00:41:51;44.482918;39.315086;58.073654;;
79288;Laerm;68737;53.946;27.634;2023-05-07T00:44:21;44.266449;40.158875;55.964767;;
79288;Laerm;68737;53.946;27.634;2023-05-07T00:46:52;43.721733;40.920563;46.664619;;
79288;Laerm;68737;53.946;27.634;2023-05-07T00:49:21;43.587234;39.332054;55.025780;;
79288;Laerm;68737;53.946;27.634;2023-05-07T00:51:51;44.890518;39.886879;55.217545;;
79288;Laerm;68737;53.946;27.634;2023-05-07T00:54:21;45.392296;40.431747;58.208313;;
79288;Laerm;68737;53.946;27.634;2023-05-07T00:56:51;44.441780;41.047935;51.539108;;
79288;Laerm;68737;53.946;27.634;2023-05-07T00:59:21;44.503708;40.885399;59.023003;;
79288;Laerm;68737;53.946;27.634;2023-05-07T01:01:51;44.839676;39.332451;57.929268;;
79288;Laerm;68737;53.946;27.634;2023-05-07T01:04:21;42.666183;39.084991;46.986977;;
79288;Laerm;68737;53.946;27.634;2023-05-07T01:06:51;45.354492;39.967674;60.062965;;
79288;Laerm;68737;53.946;27.634;2023-05-07T01:09:22;44.202705;41.074333;51.165970;;
79288;Laerm;68737;53.946;27.634;2023-05-07T01:11:51;45.780838;41.152802;58.653389;;
79288;Laerm;68737;53.946;27.634;2023-05-07T01:14:21;45.777969;40.664177;58.731026;;
79288;Laerm;68737;53.946;27.634;2023-05-07T01:16:51;42.455048;39.114601;48.386002;;
79288;Laerm;68737;53.946;27.634;2023-05-07T01:19:21;46.317123;41.236717;54.262741;;
79288;Laerm;68737;53.946;27.634;2023-05-07T01:21:51;43.770416;39.744293;49.443977;;
79288;Laerm;68737;53.946;27.634;2023-05-07T01:24:21;43.758057;40.201927;52.482597;;
79288;Laerm;68737;53.946;27.634;2023-05-07T01:26:51;45.160805;40.002548;54.756882;;
79288;Laerm;68737;53.946;27.634;2023-05-07T01:29:21;43.477936;40.119759;50.008057;;
79288;Laerm;68737;53.946;27.634;2023-05-07T01:31:51;46.719872;41.721214;56.312202;;
79288;Laerm;68737;53.946;27.634;2023-05-07T01:34:21;46.178329;41.430443;56.975571;;
79288;Laerm;68737;53.946;27.634;2023-05-07T01:36:52;46.910164;41.422264;58.282646;;
79288;Laerm;68737;53.946;27.634;2023-05-07T01:39:22;45.513947;41.102425;54.664398;;
79288;Laerm;68737;53.946;27.634;2023-05-07T01:41:51;46.918404;40.496063;62.105785;;
79288;Laerm;68737;53.946;27.634;2023-05-07T01:44:22;43.404564;40.635262;64.967880;;
79288;Laerm;68737;53.946;27.634;2023-05-07T01:46:51;44.581985;40.928360;55.644676;;
79288;Laerm;68737;53.946;27.634;2023-05-07T01:49:21;47.402229;41.410675;59.440628;;
79288;Laerm;68737;53.946;27.634;2023-05-07T01:51:51;48.899750;41.739006;61.077885;;
79288;Laerm;68737;53.946;27.634;2023-05-07T01:56:51;48.937500;42.001114;64.642014;;
79288;Laerm;68737;53.946;27.634;2023-05-07T01:59:21;46.085670;41.117256;55.459045;;
79288;Laerm;68737;53.946;27.634;2023-05-07T02:01:51;48.192955;42.069405;56.844475;;
79288;Laerm;68737;53.946;27.634;2023-05-07T02:04:21;47.717377;40.705627;60.165928;;
79288;Laerm;68737;53.946;27.634;2023-05-07T02:06:51;51.266029;42.424835;71.039490;;
79288;Laerm;68737;53.946;27.634;2023-05-07T02:09:21;46.028160;42.054123;54.603203;;
79288;Laerm;68737;53.946;27.634;2023-05-07T02:11:51;46.151001;41.784042;58.269112;;
79288;Laerm;68737;53.946;27.634;2023-05-07T02:14:21;46.203369;41.265930;59.586586;;
79288;Laerm;68737;53.946;27.634;2023-05-07T02:16:51;48.401306;41.446945;62.792641;;
79288;Laerm;68737;53.946;27.634;2023-05-07T02:19:21;47.256348;41.437729;56.203941;;
79288;Laerm;68737;53.946;27.634;2023-05-07T02:21:51;49.190781;42.584511;62.912483;;
79288;Laerm;68737;53.946;27.634;2023-05-07T02:24:21;47.793640;41.977264;58.194649;;
79288;Laerm;68737;53.946;27.634;2023-05-07T02:26:51;49.487328;42.148819;68.505630;;
79288;Laerm;68737;53.946;27.634;2023-05-07T02:29:21;47.864937;42.627121;63.824055;;
79288;Laerm;68737;53.946;27.634;2023-05-07T02:31:51;45.462280;41.352112;53.064186;;
79288;Laerm;68737;53.946;27.634;2023-05-07T02:34:21;48.554138;41.114471;62.796234;;
79288;Laerm;68737;53.946;27.634;2023-05-07T02:36:51;45.502983;41.363365;59.241325;;
79288;Laerm;68737;53.946;27.634;2023-05-07T02:39:21;47.053963;42.395370;55.446228;;
79288;Laerm;68737;53.946;27.634;2023-05-07T02:41:51;45.940628;41.618431;55.661827;;
79288;Laerm;68737;53.946;27.634;2023-05-07T02:44:21;48.550446;41.731857;58.636917;;
79288;Laerm;68737;53.946;27.634;2023-05-07T02:46:51;48.255135;41.698959;63.388527;;
79288;Laerm;68737;53.946;27.634;2023-05-07T02:49:21;48.094337;41.206703;62.488987;;
79288;Laerm;68737;53.946;27.634;2023-05-07T02:51:51;48.579765;43.443512;64.108162;;
79288;Laerm;68737;53.946;27.634;2023-05-07T02:54:21;47.082954;42.389053;61.008461;;
79288;Laerm;68737;53.946;27.634;2023-05-07T02:56:51;46.123558;40.882637;57.411148;;
79288;Laerm;68737;53.946;27.634;2023-05-07T02:59:21;47.437256;41.380310;61.055172;;
79288;Laerm;68737;53.946;27.634;2023-05-07T03:01:51;51.969902;42.992012;67.544212;;
79288;Laerm;68737;53.946;27.634;2023-05-07T03:04:21;47.468468;43.326874;56.798470;;
79288;Laerm;68737;53.946;27.634;2023-05-07T03:06:51;49.398315;43.379112;59.843327;;
79288;Laerm;68737;53.946;27.634;2023-05-07T03:09:21;47.379265;43.350693;56.299515;;
79288;Laerm;68737;53.946;27.634;2023-05-07T03:11:51;49.168419;43.434364;57.575539;;
79288;Laerm;68737;53.946;27.634;2023-05-07T03:14:21;52.530922;43.602631;70.381439;;
79288;Laerm;68737;53.946;27.634;2023-05-07T03:16:51;50.279930;43.436241;61.847401;;
79288;Laerm;68737;53.946;27.634;2023-05-07T03:19:21;49.088921;43.875435;61.897339;;
79288;Laerm;68737;53.946;27.634;2023-05-07T03:21:52;48.376503;43.566010;56.861351;;
79288;Laerm;68737;53.946;27.634;2023-05-07T03:24:21;48.822632;45.309608;55.506721;;
79288;Laerm;68737;53.946;27.634;2023-05-07T03:26:51;49.179482;44.528587;57.473732;;
79288;Laerm;68737;53.946;27.634;2023-05-07T03:29:21;48.197250;43.651459;59.094837;;
79288;Laerm;68737;53.946;27.634;2023-05-07T03:31:51;49.633751;43.442940;60.551006;;
79288;Laerm;68737;53.946;27.634;2023-05-07T03:34:21;50.346123;45.277191;59.826042;;
79288;Laerm;68737;53.946;27.634;2023-05-07T03:36:51;48.780785;44.848366;57.921471;;
79288;Laerm;68737;53.946;27.634;2023-05-07T03:39:21;50.384094;45.833328;61.940617;;
79288;Laerm;68737;53.946;27.634;2023-05-07T03:41:51;50.462425;45.055618;60.757286;;
79288;Laerm;68737;53.946;27.634;2023-05-07T03:44:21;49.921783;45.446793;56.264999;;
79288;Laerm;68737;53.946;27.634;2023-05-07T03:46:51;51.083588;45.098160;63.216698;;
79288;Laerm;68737;53.946;27.634;2023-05-07T03:49:21;50.885201;44.270775;60.200645;;
79288;Laerm;68737;53.946;27.634;2023-05-07T03:51:51;50.899033;45.130150;63.585751;;
79288;Laerm;68737;53.946;27.634;2023-05-07T03:54:21;52.427139;44.495781;65.509094;;
79288;Laerm;68737;53.946;27.634;2023-05-07T03:56:51;53.522987;44.685432;66.077194;;
79288;Laerm;68737;53.946;27.634;2023-05-07T03:59:21;52.224030;44.570511;67.363960;;
79288;Laerm;68737;53.946;27.634;2023-05-07T04:01:51;51.265121;44.721870;58.725159;;
79288;Laerm;68737;53.946;27.634;2023-05-07T04:04:21;49.163345;44.546341;58.851234;;
79288;Laerm;68737;53.946;27.634;2023-05-07T04:06:51;54.932091;44.834358;70.230339;;
79288;Laerm;68737;53.946;27.634;2023-05-07T04:09:21;50.080078;43.899544;65.792679;;
79288;Laerm;68737;53.946;27.634;2023-05-07T04:11:51;50.945641;46.048706;60.738491;;
79288;Laerm;68737;53.946;27.634;2023-05-07T04:14:21;51.451492;45.651085;60.320889;;
79288;Laerm;68737;53.946;27.634;2023-05-07T04:16:51;49.666885;44.739792;58.521286;;
79288;Laerm;68737;53.946;27.634;2023-05-07T04:19:21;52.896843;45.838097;72.880745;;
79288;Laerm;68737;53.946;27.634;2023-05-07T04:21:51;50.507660;45.468323;58.467941;;
79288;Laerm;68737;53.946;27.634;2023-05-07T04:24:21;53.541672;45.860466;72.819397;;
79288;Laerm;68737;53.946;27.634;2023-05-07T04:26:51;49.733459;45.056030;59.031509;;
79288;Laerm;68737;53.946;27.634;2023-05-07T04:29:21;51.407181;44.874718;58.988861;;
79288;Laerm;68737;53.946;27.634;2023-05-07T04:31:51;51.251511;45.387329;60.787319;;
79288;Laerm;68737;53.946;27.634;2023-05-07T04:34:21;52.961845;45.043777;65.442551;;
79288;Laerm;68737;53.946;27.634;2023-05-07T04:36:51;49.580048;42.868248;58.489868;;
79288;Laerm;68737;53.946;27.634;2023-05-07T04:39:21;49.425232;43.596313;58.164055;;
79288;Laerm;68737;53.946;27.634;2023-05-07T04:41:51;52.575691;44.182404;67.468613;;
79288;Laerm;68737;53.946;27.634;2023-05-07T04:44:22;50.876480;43.539246;61.548244;;
79288;Laerm;68737;53.946;27.634;2023-05-07T04:46:51;50.730087;43.472153;61.113586;;
79288;Laerm;68737;53.946;27.634;2023-05-07T04:49:21;50.899658;43.556381;64.467628;;
79288;Laerm;68737;53.946;27.634;2023-05-07T04:51:51;52.096886;44.168449;63.004486;;
79288;Laerm;68737;53.946;27.634;2023-05-07T04:54:21;55.850891;45.174393;68.577896;;
79288;Laerm;68737;53.946;27.634;2023-05-07T04:56:51;51.368652;43.698845;64.107895;;
79288;Laerm;68737;53.946;27.634;2023-05-07T04:59:21;52.517044;44.559883;61.327736;;
79288;Laerm;68737;53.946;27.634;2023-05-07T05:01:51;53.037689;45.122658;67.643059;;
79288;Laerm;68737;53.946;27.634;2023-05-07T05:04:21;48.868652;42.633202;62.238178;;
79288;Laerm;68737;53.946;27.634;2023-05-07T05:06:51;50.526810;44.102684;58.346016;;
79288;Laerm;68737;53.946;27.634;2023-05-07T05:09:21;50.119377;43.426567;61.257343;;
79288;Laerm;68737;53.946;27.634;2023-05-07T05:11:51;50.078918;43.784286;59.327080;;
79288;Laerm;68737;53.946;27.634;2023-05-07T05:14:21;51.469307;42.746925;61.159611;;
79288;Laerm;68737;53.946;27.634;2023-05-07T05:16:51;51.269020;43.557373;66.455963;;
79288;Laerm;68737;53.946;27.634;2023-05-07T05:19:21;52.304909;43.668427;64.532143;;
79288;Laerm;68737;53.946;27.634;2023-05-07T05:21:51;55.196091;43.217468;68.007690;;
79288;Laerm;68737;53.946;27.634;2023-05-07T05:24:21;53.086082;42.928978;63.497631;;
79288;Laerm;68737;53.946;27.634;2023-05-07T05:26:52;49.927696;43.105713;58.931152;;
79288;Laerm;68737;53.946;27.634;2023-05-07T05:29:21;50.341843;42.738358;63.232231;;
79288;Laerm;68737;53.946;27.634;2023-05-07T05:31:51;53.095345;43.897667;61.482677;;
79288;Laerm;68737;53.946;27.634;2023-05-07T05:34:21;52.369766;43.064926;67.571259;;
79288;Laerm;68737;53.946;27.634;2023-05-07T05:36:51;53.559601;44.059776;65.072044;;
79288;Laerm;68737;53.946;27.634;2023-05-07T05:39:21;57.292160;45.614815;76.358795;;
79288;Laerm;68737;53.946;27.634;2023-05-07T05:41:51;52.100975;43.772751;63.612000;;
79288;Laerm;68737;53.946;27.634;2023-05-07T05:44:21;54.468590;42.601036;73.762314;;
79288;Laerm;68737;53.946;27.634;2023-05-07T05:46:51;51.426529;43.038673;60.699497;;
79288;Laerm;68737;53.946;27.634;2023-05-07T05:49:21;50.401260;42.414398;59.330151;;
79288;Laerm;68737;53.946;27.634;2023-05-07T05:51:51;52.302010;42.173431;61.451096;;
79288;Laerm;68737;53.946;27.634;2023-05-07T05:54:21;50.686584;43.032684;61.305500;;
79288;Laerm;68737;53.946;27.634;2023-05-07T05:56:51;52.066879;43.301765;60.951778;;
79288;Laerm;68737;53.946;27.634;2023-05-07T05:59:21;49.657318;43.177887;59.855698;;
79288;Laerm;68737;53.946;27.634;2023-05-07T06:01:51;50.376045;43.771278;61.000954;;
79288;Laerm;68737;53.946;27.634;2023-05-07T06:04:21;49.659187;41.724243;60.720161;;
79288;Laerm;68737;53.946;27.634;2023-05-07T06:06:51;49.531700;43.031593;62.118450;;
79288;Laerm;68737;53.946;27.634;2023-05-07T06:09:21;50.895515;43.083549;59.329132;;
79288;Laerm;68737;53.946;27.634;2023-05-07T06:11:51;51.850967;42.943138;62.843494;;
79288;Laerm;68737;53.946;27.634;2023-05-07T06:14:21;50.479210;42.419540;59.622314;;
79288;Laerm;68737;53.946;27.634;2023-05-07T06:16:51;51.598274;44.091003;60.988636;;
79288;Laerm;68737;53.946;27.634;2023-05-07T06:19:21;51.080116;44.992287;61.111729;;
79288;Laerm;68737;53.946;27.634;2023-05-07T06:21:51;52.569954;43.935440;61.719009;;
79288;Laerm;68737;53.946;27.634;2023-05-07T06:24:21;51.562737;43.359489;64.275673;;
79288;Laerm;68737;53.946;27.634;2023-05-07T06:26:51;53.105583;45.273430;62.185638;;
79288;Laerm;68737;53.946;27.634;2023-05-07T06:29:21;51.756775;44.025497;63.157146;;
79288;Laerm;68737;53.946;27.634;2023-05-07T06:31:52;52.357246;44.878822;67.944977;;
79288;Laerm;68737;53.946;27.634;2023-05-07T06:34:21;52.799721;43.713501;68.216446;;
79288;Laerm;68737;53.946;27.634;2023-05-07T06:36:51;52.957344;44.255058;69.318359;;
79288;Laerm;68737;53.946;27.634;2023-05-07T06:39:21;52.236061;44.617691;63.443714;;
79288;Laerm;68737;53.946;27.634;2023-05-07T06:41:51;50.722900;44.463455;66.570312;;
79288;Laerm;68737;53.946;27.634;2023-05-07T06:44:21;53.049049;45.405411;77.386307;;
79288;Laerm;68737;53.946;27.634;2023-05-07T06:46:51;53.649353;44.770782;62.284775;;
79288;Laerm;68737;53.946;27.634;2023-05-07T06:49:21;53.110069;44.114342;64.955887;;
79288;Laerm;68737;53.946;27.634;2023-05-07T06:51:51;55.346992;47.514595;66.775269;;
79288;Laerm;68737;53.946;27.634;2023-05-07T06:54:21;54.089973;47.921898;61.670925;;
79288;Laerm;68737;53.946;27.634;2023-05-07T06:56:51;55.685905;48.452759;65.087852;;
79288;Laerm;68737;53.946;27.634;2023-05-07T06:59:21;55.042717;47.639053;66.236145;;
79288;Laerm;68737;53.946;27.634;2023-05-07T07:01:51;53.350868;46.198067;63.969383;;
79288;Laerm;68737;53.946;27.634;2023-05-07T07:04:21;53.079224;46.174263;62.434010;;
79288;Laerm;68737;53.946;27.634;2023-05-07T07:09:21;52.428169;45.341614;60.605080;;
79288;Laerm;68737;53.946;27.634;2023-05-07T07:11:51;50.610825;42.801422;59.657589;;
79288;Laerm;68737;53.946;27.634;2023-05-07T07:14:21;54.136261;44.188400;63.047096;;
79288;Laerm;68737;53.946;27.634;2023-05-07T07:16:51;53.770752;43.573761;64.548401;;
79288;Laerm;68737;53.946;27.634;2023-05-07T07:19:21;52.430130;44.665550;70.215424;;
79288;Laerm;68737;53.946;27.634;2023-05-07T07:21:51;53.951126;46.047531;68.923134;;
79288;Laerm;68737;53.946;27.634;2023-05-07T07:24:21;54.724724;45.776825;66.791985;;
79288;Laerm;68737;53.946;27.634;2023-05-07T07:26:51;51.491577;44.697525;60.788429;;
79288;Laerm;68737;53.946;27.634;2023-05-07T07:29:21;53.206696;45.906494;70.242729;;
79288;Laerm;68737;53.946;27.634;2023-05-07T07:31:51;54.460419;45.826843;64.093697;;
79288;Laerm;68737;53.946;27.634;2023-05-07T07:34:21;51.944603;46.162994;63.308346;;
79288;Laerm;68737;53.946;27.634;2023-05-07T07:36:51;51.807404;45.272141;61.610691;;
79288;Laerm;68737;53.946;27.634;2023-05-07T07:39:21;54.359657;46.773697;64.682190;;
79288;Laerm;68737;53.946;27.634;2023-05-07T07:41:51;52.380188;45.290977;63.136547;;
79288;Laerm;68737;53.946;27.634;2023-05-07T07:44:21;53.262283;45.852539;70.930664;;
79288;Laerm;68737;53.946;27.634;2023-05-07T07:46:51;53.432381;46.047142;63.084221;;
79288;Laerm;68737;53.946;27.634;2023-05-07T07:49:21;54.275673;45.114120;77.177406;;
79288;Laerm;68737;53.946;27.634;2023-05-07T07:51:51;53.470795;45.659378;65.831963;;
79288;Laerm;68737;53.946;27.634;2023-05-07T07:54:21;52.895355;45.619377;70.124435;;
79288;Laerm;68737;53.946;27.634;2023-05-07T07:56:51;52.960876;45.775185;64.471252;;
79288;Laerm;68737;53.946;27.634;2023-05-07T07:59:21;54.290291;46.564262;65.627281;;
79288;Laerm;68737;53.946;27.634;2023-05-07T08:01:51;53.651192;45.612411;63.326366;;
79288;Laerm;68737;53.946;27.634;2023-05-07T08:04:21;54.754730;45.245384;65.682816;;
79288;Laerm;68737;53.946;27.634;2023-05-07T08:06:51;52.591705;44.398773;66.758728;;
79288;Laerm;68737;53.946;27.634;2023-05-07T08:09:21;50.569084;43.092514;63.705631;;
79288;Laerm;68737;53.946;27.634;2023-05-07T08:11:51;54.256203;43.821236;65.357452;;
79288;Laerm;68737;53.946;27.634;2023-05-07T08:14:21;53.607269;43.826836;69.291534;;
79288;Laerm;68737;53.946;27.634;2023-05-07T08:16:51;53.418976;45.607414;61.164062;;
79288;Laerm;68737;53.946;27.634;2023-05-07T08:19:21;52.108452;43.916267;64.351372;;
79288;Laerm;68737;53.946;27.634;2023-05-07T08:21:51;54.353767;46.178078;65.626297;;
79288;Laerm;68737;53.946;27.634;2023-05-07T08:24:21;54.526329;45.316391;66.746811;;
79288;Laerm;68737;53.946;27.634;2023-05-07T08:26:51;53.699974;46.727333;59.754642;;
79288;Laerm;68737;53.946;27.634;2023-05-07T08:29:21;59.487881;43.949127;77.059822;;
79288;Laerm;68737;53.946;27.634;2023-05-07T08:31:51;56.812492;47.561028;72.359840;;
79288;Laerm;68737;53.946;27.634;2023-05-07T08:34:21;54.828018;44.305092;72.411545;;
79288;Laerm;68737;53.946;27.634;2023-05-07T08:36:51;51.852234;44.863297;64.615692;;
79288;Laerm;68737;53.946;27.634;2023-05-07T08:39:21;54.049583;45.634995;70.617279;;
79288;Laerm;68737;53.946;27.634;2023-05-07T08:41:51;52.354820;43.478661;62.231106;;
79288;Laerm;68737;53.946;27.634;2023-05-07T08:44:21;54.734459;45.324814;65.564682;;
79288;Laerm;68737;53.946;27.634;2023-05-07T08:46:51;54.961220;46.578773;68.457184;;
79288;Laerm;68737;53.946;27.634;2023-05-07T08:49:21;52.141266;45.735054;65.027222;;
79288;Laerm;68737;53.946;27.634;2023-05-07T08:51:51;52.238770;43.694649;61.132336;;
79288;Laerm;68737;53.946;27.634;2023-05-07T08:54:21;52.156342;44.433578;62.137920;;
79288;Laerm;68737;53.946;27.634;2023-05-07T08:56:51;52.728142;44.159683;63.451900;;
79288;Laerm;68737;53.946;27.634;2023-05-07T08:59:21;55.675171;47.568626;68.576019;;
79288;Laerm;68737;53.946;27.634;2023-05-07T09:01:51;53.242744;47.572365;62.649151;;
79288;Laerm;68737;53.946;27.634;2023-05-07T09:04:21;52.604881;45.681778;72.983360;;
79288;Laerm;68737;53.946;27.634;2023-05-07T09:06:51;55.296806;47.469002;71.949081;;
79288;Laerm;68737;53.946;27.634;2023-05-07T09:09:21;53.907623;45.380676;61.564789;;
79288;Laerm;68737;53.946;27.634;2023-05-07T09:11:56;53.309250;44.450233;63.024765;;
79288;Laerm;68737;53.946;27.634;2023-05-07T09:14:21;56.080360;42.681381;73.208694;;
79288;Laerm;68737;53.946;27.634;2023-05-07T09:24:21;56.135757;47.911469;70.197350;;
79288;Laerm;68737;53.946;27.634;2023-05-07T09:26:51;55.123772;47.125198;71.383392;;
79288;Laerm;68737;53.946;27.634;2023-05-07T09:29:21;52.706360;47.488945;65.779755;;
79288;Laerm;68737;53.946;27.634;2023-05-07T09:31:51;54.288345;46.469330;68.544731;;
79288;Laerm;68737;53.946;27.634;2023-05-07T09:34:21;56.863556;46.631203;72.049286;;
79288;Laerm;68737;53.946;27.634;2023-05-07T09:36:51;53.850929;44.830086;72.966736;;
79288;Laerm;68737;53.946;27.634;2023-05-07T09:39:21;53.260147;44.100510;67.892776;;
79288;Laerm;68737;53.946;27.634;2023-05-07T09:41:51;52.820602;43.891502;60.789135;;
79288;Laerm;68737;53.946;27.634;2023-05-07T09:44:21;52.830788;43.340408;67.058777;;
79288;Laerm;68737;53.946;27.634;2023-05-07T09:46:53;52.824081;41.585846;65.307114;;
79288;Laerm;68737;53.946;27.634;2023-05-07T09:49:23;54.491425;44.998947;67.594635;;
79288;Laerm;68737;53.946;27.634;2023-05-07T09:51:51;54.084442;44.948013;71.563110;;
79288;Laerm;68737;53.946;27.634;2023-05-07T09:54:21;55.813789;44.959549;70.006737;;
79288;Laerm;68737;53.946;27.634;2023-05-07T09:56:51;55.097862;45.224457;70.999901;;
79288;Laerm;68737;53.946;27.634;2023-05-07T09:59:21;52.846825;43.416351;67.546326;;
79288;Laerm;68737;53.946;27.634;2023-05-07T10:01:51;52.590118;42.895752;66.869690;;
79288;Laerm;68737;53.946;27.634;2023-05-07T10:04:21;56.238213;43.911575;75.991272;;
79288;Laerm;68737;53.946;27.634;2023-05-07T10:06:51;53.054581;46.173027;67.764641;;
79288;Laerm;68737;53.946;27.634;2023-05-07T10:09:21;52.997223;45.492439;63.978355;;
79288;Laerm;68737;53.946;27.634;2023-05-07T10:11:51;54.787781;45.307320;71.508972;;
79288;Laerm;68737;53.946;27.634;2023-05-07T10:14:21;54.104652;46.068459;65.622055;;
79288;Laerm;68737;53.946;27.634;2023-05-07T10:16:51;53.572243;44.992867;62.583630;;
79288;Laerm;68737;53.946;27.634;2023-05-07T10:19:21;54.116631;46.818123;61.537399;;
79288;Laerm;68737;53.946;27.634;2023-05-07T10:26:51;51.806175;44.593132;60.389904;;
79288;Laerm;68737;53.946;27.634;2023-05-07T10:31:54;53.710968;45.664810;62.308384;;
79288;Laerm;68737;53.946;27.634;2023-05-07T10:34:21;51.594841;43.986229;59.104057;;
79288;Laerm;68737;53.946;27.634;2023-05-07T10:36:51;53.826797;43.500626;64.586853;;
79288;Laerm;68737;53.946;27.634;2023-05-07T10:39:21;52.675720;42.823860;61.060085;;
79288;Laerm;68737;53.946;27.634;2023-05-07T10:41:51;51.891373;43.413208;63.569469;;
79288;Laerm;68737;53.946;27.634;2023-05-07T10:49:21;54.677673;44.507027;70.330811;;
79288;Laerm;68737;53.946;27.634;2023-05-07T10:54:21;52.475639;45.394165;60.339756;;
79288;Laerm;68737;53.946;27.634;2023-05-07T10:56:50;54.357231;45.073479;61.822472;;
79288;Laerm;68737;53.946;27.634;2023-05-07T11:04:23;52.358406;44.606544;62.634083;;
79288;Laerm;68737;53.946;27.634;2023-05-07T11:09:20;51.626137;43.691849;66.576912;;
79288;Laerm;68737;53.946;27.634;2023-05-07T11:11:51;51.916649;44.241516;62.493912;;
79288;Laerm;68737;53.946;27.634;2023-05-07T11:16:50;52.699799;43.743927;61.320179;;
79288;Laerm;68737;53.946;27.634;2023-05-07T11:19:47;51.728714;43.360184;61.257812;;
79288;Laerm;68737;53.946;27.634;2023-05-07T11:21:50;56.028046;44.585091;65.066444;;
79288;Laerm;68737;53.946;27.634;2023-05-07T11:24:20;52.539932;44.873077;63.038071;;
79288;Laerm;68737;53.946;27.634;2023-05-07T11:26:50;52.922585;44.775177;60.070690;;
79288;Laerm;68737;53.946;27.634;2023-05-07T11:29:21;52.254204;44.499199;61.832138;;
79288;Laerm;68737;53.946;27.634;2023-05-07T11:31:51;51.831161;43.885796;59.644730;;
79288;Laerm;68737;53.946;27.634;2023-05-07T11:34:21;51.485123;42.960846;61.254406;;
79288;Laerm;68737;53.946;27.634;2023-05-07T11:36:51;51.666725;42.886574;63.792023;;
79288;Laerm;68737;53.946;27.634;2023-05-07T11:41:50;51.530495;44.121277;65.563919;;
79288;Laerm;68737;53.946;27.634;2023-05-07T11:44:20;54.051598;45.104279;71.238953;;
79288;Laerm;68737;53.946;27.634;2023-05-07T11:46:51;53.576073;44.421562;70.631538;;
79288;Laerm;68737;53.946;27.634;2023-05-07T11:49:20;52.165222;44.051270;62.470299;;
79288;Laerm;68737;53.946;27.634;2023-05-07T11:51:50;51.895493;43.296883;60.041134;;
79288;Laerm;68737;53.946;27.634;2023-05-07T11:54:20;53.950928;42.710258;65.337906;;
79288;Laerm;68737;53.946;27.634;2023-05-07T11:56:51;52.063957;44.576767;60.595879;;
79288;Laerm;68737;53.946;27.634;2023-05-07T11:59:20;52.181946;45.897820;61.332352;;
79288;Laerm;68737;53.946;27.634;2023-05-07T12:01:52;51.762169;43.252563;59.428368;;
79288;Laerm;68737;53.946;27.634;2023-05-07T12:04:20;51.665794;44.710846;59.681446;;
79288;Laerm;68737;53.946;27.634;2023-05-07T12:06:53;52.705772;44.689476;60.630299;;
79288;Laerm;68737;53.946;27.634;2023-05-07T12:09:20;52.783508;44.544533;62.410679;;
79288;Laerm;68737;53.946;27.634;2023-05-07T12:11:51;53.083557;46.342873;62.947330;;
79288;Laerm;68737;53.946;27.634;2023-05-07T12:14:20;53.206398;44.443703;62.699028;;
79288;Laerm;68737;53.946;27.634;2023-05-07T12:16:50;54.369904;44.076324;72.033119;;
79288;Laerm;68737;53.946;27.634;2023-05-07T12:19:20;51.781624;44.577866;65.820244;;
79288;Laerm;68737;53.946;27.634;2023-05-07T12:21:50;53.111641;44.156021;66.892296;;
79288;Laerm;68737;53.946;27.634;2023-05-07T12:24:20;53.445206;44.134094;62.299664;;
79288;Laerm;68737;53.946;27.634;2023-05-07T12:26:50;56.519714;44.219765;87.398163;;
79288;Laerm;68737;53.946;27.634;2023-05-07T12:29:21;53.108727;42.224358;63.062092;;